Tiempo atmosférico en la estación meteorológica de Antigua, Las Palmas (252 m.)

Fecha
DESCASC
Temp. máxima en grados centígrados (hora)
DESCASC
Temp. mínima en grados centígrados (hora)
DESCASC
Temp. media en grados centígrados
DESCASC
Racha de viento máxima en m/sg (hora)
DESCASC
Velocidad máxima media en intervalos de 10 minutos(hora)
DESCASC
Precipitaciones diarias en mm
DESCASC
Precipitaciones de 00:00 a 06:00 en mm
DESCASC
Precipitaciones de 06:00 a 12:00 en mm
DESCASC
Precipitaciones de 12:00 a 18:00 en mm
DESCASC
Precipitaciones de 18:00 a 24:00 en mm
DESCASC
21-09-2017 25 (14:10) 17.5 (06:30) 21.3 16.39 (15:10) 11.11 (14:10) 0 0 0 0 0
20-09-2017 26.5 (13:30) 17.3 (08:10) 21.9 12.5 (17:30) 8.89 (17:30) 0 0 0 0 0
19-09-2017 26.7 (15:00) 17.3 (07:40) 22 8.89 (16:50) 6.11 (17:10) 0 0 0 0 0
18-09-2017 24.2 (15:30) 18.2 (06:20) 21.2 10.28 (11:10) 7.22 (11:00) 0 0 0 0 0
17-09-2017 24.6 (13:40) 18.4 (00:00) 21.5 10.28 (17:10) 7.22 (19:00) 0 0 0 0 0
16-09-2017 26 (14:00) 19.3 (00:00) 22.6 13.06 (14:50) 9.17 (14:40) 0 0 0 0 0
15-09-2017 -- (--) -- (--) -- -- (--) -- (--) -- 0 -- 0 0
14-09-2017 -- (--) -- (--) -- -- (--) -- (--) -- 0 0 0 --
13-09-2017 30.2 (16:30) 16.5 (00:00) 23.4 7.78 (15:10) 5.28 (19:00) 0 0 0 0 0
12-09-2017 26.4 (14:30) 17.7 (00:00) 22.1 8.06 (14:30) 5.56 (14:00) 0 0 0 0 0
11-09-2017 25.5 (14:30) 18.7 (00:00) 22.1 12.5 (15:10) 8.89 (15:30) 0 0 0 0 0
10-09-2017 25.3 (14:40) 17.6 (00:00) 21.4 13.33 (12:40) 9.17 (12:50) 0 0 0 0 0
09-09-2017 -- (--) -- (--) -- -- (--) -- (--) -- 0 0 -- --
08-09-2017 27 (14:40) 19.1 (00:00) 23.1 12.22 (11:50) 9.44 (11:50) 0 0 0 0 0
07-09-2017 27.2 (15:00) 19.6 (00:00) 23.4 13.06 (12:20) 9.17 (21:20) 0 0 0 0 0
06-09-2017 25.3 (13:10) 18.8 (00:00) 22 16.11 (01:50) 11.67 (01:20) 0 0 0 0 0
05-09-2017 28.3 (12:50) 17.3 (00:00) 22.8 15.28 (18:20) 11.39 (18:40) 0 0 0 0 0
04-09-2017 29.4 (14:20) 19.6 (00:00) 24.5 12.78 (15:00) 8.61 (15:00) 0 0 0 0 0
03-09-2017 28.1 (15:00) 20.3 (00:00) 24.2 10.83 (22:20) 7.78 (22:20) 0 0 0 0 0
02-09-2017 -- (--) -- (--) -- -- (--) -- (--) -- -- 0 -- 0
01-09-2017 24.6 (15:20) 18.9 (00:00) 21.8 14.17 (00:40) 10.28 (00:40) 0 0 0 0 0
31-08-2017 25.6 (12:50) 19.9 (00:00) 22.8 17.22 (20:20) 12.22 (18:10) 0 0 0 0 0
30-08-2017 26.7 (14:50) 19.5 (00:00) 23.1 15 (20:50) 10.83 (21:50) 0 0 0 0 0
29-08-2017 26.2 (14:50) 18 (00:00) 22.1 14.17 (15:00) 10 (15:10) 0 0 0 0 0
28-08-2017 -- (--) -- (--) -- -- (--) -- (--) -- 0 0 -- 0
27-08-2017 -- (--) -- (--) -- -- (--) -- (--) -- 0 0 -- 0
26-08-2017 29.3 (14:20) 20 (00:00) 24.6 12.78 (08:20) 10.83 (08:20) 0 0 0 0 0
25-08-2017 33.6 (17:50) 21.7 (00:00) 27.6 12.22 (05:40) 7.22 (09:10) 0 0 0 0 0

Gráficas

Temp. máximas Temp. mínimas Temp. medias Precipitaciones Rachas de viento máximas Velocidades máximas media en intervalos de 10 minutos

Datos horarios

Fecha y hora oficial Temperatura (ºC) Velocidad del viento (km/h) Dirección del viento Racha (km/h) Dirección de racha Precipitación (mm) Presión (hPa) Tendencia (hPa) Humedad (%)
2017-09-23 23:00:00 19.7 3 Noroeste 20 Nordeste 0 -- -- 86
2017-09-23 22:00:00 20.2 15 Nordeste 26 Nordeste 0 -- -- 87
2017-09-23 21:00:00 20.6 8 Nordeste 23 Nordeste 0 -- -- 85
2017-09-23 20:00:00 21.5 9 Este 26 Nordeste 0 -- -- 80
2017-09-23 19:00:00 22.7 14 Nordeste 30 Nordeste 0 -- -- 77
2017-09-23 18:00:00 24 23 Nordeste 31 Este 0 -- -- 71
2017-09-23 17:00:00 25.4 21 Nordeste 32 Nordeste 0 -- -- 66
2017-09-23 16:00:00 26 18 Nordeste 30 Nordeste 0 -- -- 63
2017-09-23 15:00:00 25.6 22 Nordeste 33 Nordeste 0 -- -- 62
2017-09-23 14:00:00 26 20 Nordeste 30 Nordeste 0 -- -- 60
2017-09-23 13:00:00 25.7 18 Nordeste 28 Nordeste 0 -- -- 62
2017-09-23 12:00:00 25 15 Nordeste 26 Nordeste 0 -- -- 64
2017-09-23 11:00:00 23.3 15 Nordeste 25 Nordeste 0 -- -- 71
2017-09-23 10:00:00 21.2 15 Nordeste 23 Nordeste 0 -- -- 80
2017-09-23 09:00:00 19.1 18 Norte 31 Noroeste 0 -- -- 93
2017-09-23 08:00:00 18.6 22 Noroeste 34 Noroeste 0 -- -- 94
2017-09-23 07:00:00 18.6 24 Noroeste 45 Norte 0 -- -- 93
2017-09-23 06:00:00 18.6 37 Norte 49 Norte 0 -- -- 93
2017-09-23 05:00:00 18.6 31 Norte 50 Noroeste 0 -- -- 93
2017-09-23 04:00:00 18.7 37 Norte 49 Norte 0 -- -- 92
2017-09-23 03:00:00 18.8 31 Norte 40 Norte 0 -- -- 91
2017-09-23 02:00:00 18.8 23 Noroeste 33 Noroeste 0 -- -- 90
2017-09-23 01:00:00 18.8 20 Norte 34 Norte 0 -- -- 88
2017-09-23 00:00:00 19 23 Norte 44 Noroeste 0 -- -- 87
2017-09-22 23:00:00 19.3 31 Norte 51 Norte 0 -- -- 86
2017-09-22 22:00:00 19.5 36 Norte 62 Norte 0 -- -- 84
2017-09-22 21:00:00 19.8 40 Norte 59 Norte 0 -- -- 83
2017-09-22 20:00:00 20 41 Norte 57 Norte 0 -- -- 82
2017-09-22 19:00:00 21.1 42 Norte 57 Norte 0 -- -- 77
2017-09-22 18:00:00 22.5 44 Norte 60 Noroeste 0 -- -- 70
2017-09-22 17:00:00 23.6 41 Norte 57 Norte 0 -- -- 66
2017-09-22 16:00:00 25 38 Norte 55 Norte 0 -- -- 61
2017-09-22 15:00:00 25.7 35 Norte 57 Noroeste 0 -- -- 59
2017-09-22 14:00:00 25.9 32 Norte 50 Norte 0 -- -- 55
2017-09-22 13:00:00 25.3 30 Norte 51 Norte 0 -- -- 56
2017-09-22 12:00:00 24 37 Norte 50 Norte 0 -- -- 63
2017-09-22 11:00:00 22.7 36 Norte 51 Norte 0 -- -- 65
2017-09-22 10:00:00 21.4 34 Norte 46 Norte 0 -- -- 68
2017-09-22 09:00:00 20 28 Norte 40 Norte 0 -- -- 73
2017-09-22 08:00:00 18.7 26 Norte 38 Norte 0 -- -- 79
2017-09-22 07:00:00 18.9 24 Norte 41 Norte 0 -- -- 81
2017-09-22 06:00:00 18.9 25 Norte 47 Norte 0 -- -- 80
2017-09-22 05:00:00 19.1 26 Norte 37 Norte 0 -- -- 80
2017-09-22 04:00:00 19.2 28 Norte 42 Norte 0 -- -- 76
2017-09-22 03:00:00 19.6 23 Norte 45 Norte 0 -- -- 71
2017-09-22 02:00:00 19.6 24 Norte 39 Norte 0 -- -- 73
2017-09-22 01:00:00 19.6 26 Norte 44 Norte 0 -- -- 72
2017-09-22 00:00:00 19.3 22 Norte 35 Norte 0 -- -- 78
2017-09-21 23:00:00 19.1 26 Norte 51 Norte 0 -- -- 78
2017-09-21 22:00:00 19.8 31 Norte 46 Norte 0 -- -- 80
2017-09-21 21:00:00 19.9 32 Norte 54 Norte 0 -- -- 74
2017-09-21 20:00:00 20.2 31 Norte 50 Norte 0 -- -- 75
2017-09-21 19:00:00 21.5 30 Norte 49 Norte 0 -- -- 71
2017-09-21 18:00:00 21.4 32 Norte 48 Norte 0 -- -- 68
2017-09-21 17:00:00 22.5 34 Norte 56 Norte 0 -- -- 66
2017-09-21 16:00:00 23.2 35 Norte 59 Noroeste 0 -- -- 60
2017-09-21 15:00:00 24.5 35 Norte 55 Noroeste 0 -- -- 54
2017-09-21 14:00:00 24.7 38 Norte 55 Norte 0 -- -- 51
2017-09-21 13:00:00 23.2 31 Norte 49 Norte 0 -- -- 61
2017-09-21 12:00:00 22.7 31 Norte 50 Norte 0 -- -- 63
2017-09-21 11:00:00 22.6 29 Norte 45 Norte 0 -- -- 66
2017-09-21 10:00:00 21.5 30 Norte 44 Norte 0 -- -- 70
2017-09-21 09:00:00 20.3 19 Norte 31 Norte 0 -- -- 78
2017-09-21 08:00:00 18.6 12 Norte 20 Noroeste 0 -- -- 86
2017-09-21 07:00:00 17.6 12 Norte 19 Norte 0 -- -- 86
2017-09-21 06:00:00 17.8 14 Norte 23 Norte 0 -- -- 86
2017-09-21 05:00:00 18.3 17 Norte 32 Norte 0 -- -- 85
2017-09-21 04:00:00 18.9 19 Norte 31 Norte 0 -- -- 92
2017-09-21 03:00:00 19.4 19 Norte 30 Noroeste 0 -- -- 89
2017-09-21 02:00:00 19.2 22 Norte 32 Norte 0 -- -- 88
2017-09-21 01:00:00 19.5 21 Norte 28 Norte 0 -- -- 87
2017-09-21 00:00:00 19.7 18 Norte 30 Noroeste 0 -- -- 86
2017-09-20 23:00:00 19.8 18 Norte 32 Norte 0 -- -- 85
2017-09-20 22:00:00 19.8 21 Norte 32 Norte 0 -- -- 84
2017-09-20 21:00:00 20 21 Norte 32 Norte 0 -- -- 84
2017-09-20 20:00:00 20.4 23 Noroeste 38 Norte 0 -- -- 82
2017-09-20 19:00:00 21.9 26 Noroeste 41 Noroeste 0 -- -- 73
2017-09-20 18:00:00 23.5 29 Noroeste 45 Noroeste 0 -- -- 64
2017-09-20 17:00:00 25 29 Noroeste 40 Norte 0 -- -- 59
2017-09-20 16:00:00 26 28 Norte 40 Noroeste 0 -- -- 54
2017-09-20 15:00:00 26.2 28 Noroeste 43 Noroeste 0 -- -- 59
2017-09-20 14:00:00 26 29 Norte 36 Noroeste 0 -- -- 59
2017-09-20 13:00:00 26 19 Norte 29 Noroeste 0 -- -- 59
2017-09-20 12:00:00 24.4 14 Nordeste 22 Nordeste 0 -- -- 63
2017-09-20 11:00:00 23.3 9 Norte 17 Nordeste 0 -- -- 67
2017-09-20 10:00:00 21.3 13 Norte 21 Nordeste 0 -- -- 77
2017-09-20 09:00:00 19.1 5 Norte 12 Norte 0 -- -- 90
2017-09-20 08:00:00 17.5 6 Norte 18 Noroeste 0 -- -- 93
2017-09-20 07:00:00 18.1 17 Noroeste 28 Noroeste 0 -- -- 93
2017-09-20 06:00:00 18.4 20 Noroeste 31 Noroeste 0 -- -- 92
2017-09-20 05:00:00 18.6 19 Noroeste 30 Noroeste 0 -- -- 88
2017-09-20 04:00:00 18.6 17 Noroeste 29 Noroeste 0 -- -- 91
2017-09-20 03:00:00 18.9 18 Noroeste 24 Noroeste 0 -- -- 88
2017-09-20 02:00:00 17.7 13 Norte 15 Norte 0 -- -- 85
2017-09-20 01:00:00 18.1 8 Noroeste 12 Nordeste 0 -- -- 88
2017-09-20 00:00:00 19.1 6 Norte 12 Nordeste 0 -- -- 88
2017-09-19 23:00:00 19.5 7 Noroeste 17 Norte 0 -- -- 85
2017-09-19 22:00:00 19.9 9 Nordeste 19 Nordeste 0 -- -- 84
2017-09-19 21:00:00 20.3 12 Nordeste 22 Nordeste 0 -- -- 80
2017-09-19 20:00:00 21.4 12 Nordeste 25 Este 0 -- -- 72
2017-09-19 19:00:00 22.9 15 Nordeste 25 Nordeste 0 -- -- 64
2017-09-19 18:00:00 24 20 Nordeste 31 Nordeste 0 -- -- 58
2017-09-19 17:00:00 24.9 22 Nordeste 32 Este 0 -- -- 61
2017-09-19 16:00:00 26.2 17 Nordeste 28 Nordeste 0 -- -- 56
2017-09-19 15:00:00 26.7 14 Nordeste 24 Nordeste 0 -- -- 53
2017-09-19 14:00:00 25.8 15 Nordeste 26 Este 0 -- -- 59
2017-09-19 13:00:00 25.6 13 Nordeste 19 Norte 0 -- -- 60
2017-09-19 12:00:00 24.6 9 Nordeste 21 Este 0 -- -- 62
2017-09-19 11:00:00 22.6 6 Este 14 Este 0 -- -- 71
2017-09-19 10:00:00 20.8 2 Sur 17 Nordeste 0 -- -- 78
2017-09-19 09:00:00 18.8 3 Noroeste 14 Noroeste 0 -- -- 90
2017-09-19 08:00:00 17.3 8 Noroeste 16 Norte 0 -- -- 91
2017-09-19 07:00:00 18 9 Norte 22 Nordeste 0 -- -- 91
2017-09-19 06:00:00 18.2 12 Nordeste 20 Nordeste 0 -- -- 91
2017-09-19 05:00:00 -- 8 Nordeste 20 Nordeste 0 -- -- --
2017-09-19 04:00:00 18.4 10 Nordeste 21 Nordeste 0 -- -- 90
2017-09-19 03:00:00 18.5 14 Nordeste 24 Nordeste 0 -- -- 89
2017-09-19 02:00:00 18.6 9 Nordeste 24 Nordeste 0 -- -- 89
2017-09-19 01:00:00 18.8 17 Nordeste 28 Nordeste 0 -- -- 88
2017-09-19 00:00:00 18.9 10 Nordeste 29 Nordeste 0 -- -- 87
2017-09-18 23:00:00 18.9 4 Nordeste 31 Nordeste 0 -- -- 85
2017-09-18 22:00:00 19.1 22 Nordeste 31 Nordeste 0 -- -- 86
2017-09-18 21:00:00 19.3 18 Nordeste 36 Nordeste 0 -- -- 84
2017-09-18 20:00:00 19.8 22 Nordeste 36 Nordeste 0 -- -- 82
2017-09-18 19:00:00 21.4 15 Nordeste 31 Nordeste 0 -- -- 74
2017-09-18 18:00:00 22.5 18 Nordeste 31 Nordeste 0 -- -- 70
2017-09-18 17:00:00 23.2 17 Este 29 Este 0 -- -- 67
2017-09-18 16:00:00 23.6 19 Este 32 Este 0 -- -- 66
2017-09-18 15:00:00 24 15 Nordeste 30 Este 0 -- -- 65
2017-09-18 14:00:00 24.1 17 Este 31 Este 0 -- -- 65
2017-09-18 13:00:00 23.5 20 Este 31 Este 0 -- -- 67
2017-09-18 12:00:00 23.1 18 Nordeste 37 Este 0 -- -- 68
2017-09-18 11:00:00 21.9 26 Nordeste 35 Nordeste 0 -- -- 73
2017-09-18 10:00:00 20.5 23 Nordeste 34 Nordeste 0 -- -- 79
2017-09-18 09:00:00 19.4 18 Nordeste 30 Nordeste 0 -- -- 84
2017-09-18 08:00:00 18.4 15 Nordeste 28 Nordeste 0 -- -- 87
2017-09-18 07:00:00 18.4 13 Nordeste 29 Este 0 -- -- 88
2017-09-18 06:00:00 18.3 10 Nordeste 22 Este 0 -- -- 87
2017-09-18 05:00:00 18.4 8 Nordeste 21 Nordeste 0 -- -- 88
2017-09-18 04:00:00 18.6 11 Nordeste 20 Nordeste 0 -- -- 87
2017-09-18 03:00:00 18.6 7 Nordeste 20 Nordeste 0 -- -- 86
2017-09-18 02:00:00 18.7 9 Nordeste 21 Nordeste 0 -- -- 85
2017-09-18 01:00:00 18.7 6 Norte 21 Nordeste 0 -- -- 85
2017-09-18 00:00:00 18.9 5 Nordeste 14 Este 0 -- -- 85
2017-09-17 23:00:00 19.1 6 Nordeste 17 Nordeste 0 -- -- 84
2017-09-17 22:00:00 19.3 7 Este 27 Nordeste 0 -- -- 84
2017-09-17 21:00:00 19.4 13 Nordeste 32 Nordeste 0 -- -- 83
2017-09-17 20:00:00 19.8 21 Nordeste 37 Nordeste 0 -- -- 81
2017-09-17 19:00:00 20.9 26 Nordeste 35 Nordeste 0 -- -- 75
2017-09-17 18:00:00 22.2 20 Nordeste 37 Este 0 -- -- 71
2017-09-17 17:00:00 23 24 Nordeste 36 Nordeste 0 -- -- 68
2017-09-17 16:00:00 23.9 23 Nordeste 35 Nordeste 0 -- -- 64
2017-09-17 15:00:00 24.2 21 Nordeste 31 Nordeste 0 -- -- 63
2017-09-17 14:00:00 24.3 18 Nordeste 31 Este 0 -- -- 62
2017-09-17 13:00:00 24.3 17 Nordeste 33 Nordeste 0 -- -- 62
2017-09-17 12:00:00 22.9 23 Nordeste 32 Nordeste 0 -- -- 66
2017-09-17 11:00:00 22 17 Nordeste 31 Nordeste 0 -- -- 71
2017-09-17 10:00:00 21 16 Nordeste 27 Nordeste 0 -- -- 76
2017-09-17 09:00:00 19.6 11 Nordeste 19 Nordeste 0 -- -- 83
2017-09-17 08:00:00 18.5 7 Nordeste 23 Nordeste 0 -- -- 86
2017-09-17 07:00:00 18.5 12 Nordeste 22 Nordeste 0 -- -- 87
2017-09-17 06:00:00 18.7 10 Nordeste 22 Nordeste 0 -- -- 87
2017-09-17 05:00:00 18.8 11 Nordeste 26 Nordeste 0 -- -- 87
2017-09-17 04:00:00 18.9 13 Nordeste 22 Este 0 -- -- 86
2017-09-17 03:00:00 19.1 10 Nordeste 23 Este 0 -- -- 86
2017-09-17 02:00:00 19.1 12 Nordeste 23 Nordeste 0 -- -- 86
2017-09-17 01:00:00 19.1 11 Nordeste 23 Este 0 -- -- 85
2017-09-17 00:00:00 19.3 12 Nordeste 27 Nordeste 0 -- -- 85
2017-09-16 23:00:00 19.4 12 Nordeste 32 Norte 0 -- -- 84
2017-09-16 22:00:00 19.6 13 Nordeste 23 Nordeste 0 -- -- 83
2017-09-16 21:00:00 19.6 16 Nordeste 30 Nordeste 0 -- -- 84
2017-09-16 20:00:00 20.2 9 Nordeste 36 Nordeste 0 -- -- 82
2017-09-16 19:00:00 21.4 19 Nordeste 38 Nordeste 0 -- -- 74
2017-09-16 18:00:00 22.8 25 Este 41 Nordeste 0 -- -- 69
2017-09-16 17:00:00 23.9 27 Nordeste 41 Nordeste 0 -- -- 66
2017-09-16 16:00:00 24.5 25 Nordeste 46 Nordeste 0 -- -- 60
2017-09-16 15:00:00 24.6 27 Nordeste 47 Nordeste 0 -- -- 62
2017-09-16 14:00:00 26 21 Este 37 Este 0 -- -- 54
2017-09-16 13:00:00 24.9 18 Nordeste 39 Nordeste 0 -- -- 61
2017-09-16 12:00:00 24.1 16 Este 34 Este 0 -- -- 66
2017-09-16 11:00:00 22.5 19 Nordeste 33 Este 0 -- -- 73
2017-09-16 10:00:00 20.6 12 Este 21 Nordeste 0 -- -- 81
2017-09-16 09:00:00 20.1 12 Nordeste 26 Nordeste 0 -- -- 84
2017-09-16 08:00:00 19.5 4 Sudeste 17 Nordeste 0 -- -- 86
2017-09-16 07:00:00 19.5 5 Sudeste 25 Nordeste 0 -- -- 88
2017-09-16 06:00:00 19.6 7 Nordeste 27 Nordeste 0 -- -- 88
2017-09-16 05:00:00 19.8 9 Nordeste 18 Nordeste 0 -- -- 87
2017-09-16 04:00:00 19.9 3 Sur 18 Nordeste 0 -- -- 85
2017-09-16 03:00:00 19.8 5 Norte 13 Este 0 -- -- 87
2017-09-16 02:00:00 20.1 5 Este 17 Este 0 -- -- 87
2017-09-16 01:00:00 20.5 6 Este 14 Este 0 -- -- 86
2017-09-16 00:00:00 20.7 3 Noroeste 17 Este 0 -- -- 81
2017-09-15 23:00:00 21.1 6 Noroeste 10 Oeste 0 -- -- 75
2017-09-15 22:00:00 21.6 6 Este 15 Nordeste 0 -- -- 78
2017-09-15 21:00:00 21.7 6 Nordeste 15 Este 0 -- -- 79
2017-09-15 20:00:00 22 13 Nordeste 31 Nordeste 0 -- -- 79
2017-09-15 19:00:00 23.1 5 Este 24 Este 0 -- -- 73
2017-09-15 18:00:00 23.5 15 Este 28 Este 0 -- -- 69
2017-09-15 17:00:00 25.4 13 Nordeste 24 Nordeste 0 -- -- 54
2017-09-15 16:00:00 26.4 13 Nordeste 30 Nordeste 0 -- -- 49
2017-09-15 15:00:00 26.8 16 Nordeste 34 Nordeste 0 -- -- 48
2017-09-15 14:00:00 27.5 16 Este 35 Nordeste 0 -- -- 44
2017-09-15 13:00:00 28.5 11 Noroeste 38 Nordeste 0 -- -- 47
2017-09-15 12:00:00 26 23 Nordeste 44 Nordeste 0 -- -- 55
2017-09-15 11:00:00 26.6 17 Nordeste 34 Nordeste 0 -- -- 44
2017-09-15 10:00:00 26 20 Este 30 Nordeste 0 -- -- 46
2017-09-15 09:00:00 26 12 Nordeste 23 Norte 0 -- -- 39
2017-09-15 08:00:00 -- -- -- -- -- -- -- -- --
2017-09-15 07:00:00 26.4 14 Oeste 35 Este 0 -- -- 31
2017-09-15 06:00:00 26.1 10 Norte 34 Nordeste 0 -- -- 34
2017-09-15 05:00:00 25.5 18 Nordeste 34 Nordeste 0 -- -- 45
2017-09-15 04:00:00 24.3 6 Noroeste 15 Noroeste 0 -- -- 49
2017-09-15 03:00:00 23.4 6 Sudoeste 15 Sur 0 -- -- 58
2017-09-15 02:00:00 23.4 8 Este 23 Este 0 -- -- 62
2017-09-15 01:00:00 24.3 13 Este 27 Este 0 -- -- 55
2017-09-15 00:00:00 24.1 6 Este 16 Sur 0 -- -- 60
2017-09-14 23:00:00 23.6 9 Oeste 19 Nordeste 0 -- -- 68
2017-09-14 22:00:00 23.3 10 Nordeste 28 Nordeste 0 -- -- 74
2017-09-14 21:00:00 -- -- -- -- -- -- -- -- --
2017-09-14 20:00:00 26.5 11 Nordeste 17 Este 0 -- -- 51
2017-09-14 19:00:00 28.9 10 Este 17 Este 0 -- -- 45
2017-09-14 18:00:00 31.6 6 Nordeste 17 Este 0 -- -- 36
2017-09-14 17:00:00 32.2 12 Este 21 Nordeste 0 -- -- 36
2017-09-14 16:00:00 32.1 11 Este 23 Este 0 -- -- 33
2017-09-14 15:00:00 32.6 14 Este 22 Este 0 -- -- 31
2017-09-14 14:00:00 32.8 11 Este 25 Este 0 -- -- 35
2017-09-14 13:00:00 32.6 12 Este 23 Este 0 -- -- 33
2017-09-14 12:00:00 31.3 15 Este 22 Este 0 -- -- 38
2017-09-14 11:00:00 30 8 Este 21 Este 0 -- -- 37
2017-09-14 10:00:00 27.8 3 Noroeste 10 Noroeste 0 -- -- 44
2017-09-14 09:00:00 24.8 5 Norte 13 Norte 0 -- -- 54
2017-09-14 08:00:00 22 10 Noroeste 13 Noroeste 0 -- -- 56
2017-09-14 07:00:00 22.6 8 Noroeste 10 Noroeste 0 -- -- 54
2017-09-14 06:00:00 25.2 4 Oeste 14 Sur 0 -- -- 48
2017-09-14 05:00:00 24.5 3 Oeste 13 Sudeste 0 -- -- 52
2017-09-14 04:00:00 25.1 5 Sur 14 Sur 0 -- -- 47
2017-09-14 03:00:00 23.1 8 Noroeste 14 Noroeste 0 -- -- 53
2017-09-14 02:00:00 23.2 7 Noroeste 12 Noroeste 0 -- -- 52
2017-09-14 01:00:00 22.1 5 Oeste 10 Sudeste 0 -- -- 53
2017-09-14 00:00:00 22.8 3 Sudoeste 9 Este 0 -- -- 53
2017-09-13 23:00:00 23.2 8 Noroeste 11 Noroeste 0 -- -- 51
2017-09-13 22:00:00 24.1 5 Norte 13 Noroeste 0 -- -- 51
2017-09-13 21:00:00 23.8 4 Norte 13 Noroeste 0 -- -- 59
2017-09-13 20:00:00 23.4 3 Sudeste 22 Este 0 -- -- 71
2017-09-13 19:00:00 25.7 19 Este 26 Este 0 -- -- 67
2017-09-13 18:00:00 28.8 17 Este 26 Este 0 -- -- 50
2017-09-13 17:00:00 30.1 14 Este 22 Noroeste 0 -- -- 52
2017-09-13 16:00:00 29 8 Norte 28 Este 0 -- -- 56
2017-09-13 15:00:00 29.8 13 Sudeste 26 Este 0 -- -- 52
2017-09-13 14:00:00 28.6 5 Sur 16 Este 0 -- -- 55
2017-09-13 13:00:00 26.4 9 Este 18 Este 0 -- -- 63
2017-09-13 12:00:00 25.8 11 Este 26 Este 0 -- -- 64
2017-09-13 11:00:00 23.9 5 Este 12 Este 0 -- -- 66
2017-09-13 10:00:00 22 2 Este 9 Este 0 -- -- 78
2017-09-13 09:00:00 19.5 0 Calma 4 Sur 0 -- -- 89
2017-09-13 08:00:00 17.5 4 Oeste 18 Norte 0 -- -- 90
2017-09-13 07:00:00 18.3 13 Norte 21 Noroeste 0 -- -- 87
2017-09-13 06:00:00 17 10 Noroeste 13 Noroeste 0 -- -- 91
2017-09-13 05:00:00 17 5 Noroeste 8 Noroeste 0 -- -- 89
2017-09-13 04:00:00 17.1 3 Noroeste 5 Noroeste 0 -- -- 88
2017-09-13 03:00:00 17.6 2 Norte 8 Oeste 0 -- -- 86
2017-09-13 02:00:00 18.9 2 Norte 8 Noroeste 0 -- -- 87
2017-09-13 01:00:00 20.1 3 Noroeste 12 Noroeste 0 -- -- 85
2017-09-13 00:00:00 21.1 2 Norte 10 Norte 0 -- -- 82
2017-09-12 23:00:00 21 8 Norte 17 Norte 0 -- -- 84
2017-09-12 22:00:00 20.9 10 Norte 22 Noroeste 0 -- -- 83
2017-09-12 21:00:00 21.3 17 Norte 24 Noroeste 0 -- -- 82
2017-09-12 20:00:00 22.7 8 Norte 21 Norte 0 -- -- 75
2017-09-12 19:00:00 23 9 Este 19 Este 0 -- -- 75
2017-09-12 18:00:00 24.1 14 Este 26 Norte 0 -- -- 70
2017-09-12 17:00:00 25.4 19 Noroeste 27 Noroeste 0 -- -- 65
2017-09-12 16:00:00 25.3 17 Norte 28 Norte 0 -- -- 65
2017-09-12 15:00:00 26.4 18 Norte 29 Noroeste 0 -- -- 61
2017-09-12 14:00:00 25.6 20 Norte 28 Norte 0 -- -- 63
2017-09-12 13:00:00 25.4 13 Norte 24 Noroeste 0 -- -- 62
2017-09-12 12:00:00 24.3 12 Noroeste 28 Noroeste 0 -- -- 65
2017-09-12 11:00:00 22.6 15 Norte 26 Norte 0 -- -- 73
2017-09-12 10:00:00 21.4 19 Norte 26 Norte 0 -- -- 76
2017-09-12 09:00:00 19.8 19 Norte 27 Noroeste 0 -- -- 89
2017-09-12 08:00:00 18.2 14 Noroeste 20 Norte 0 -- -- 93
2017-09-12 07:00:00 18.1 10 Noroeste 20 Noroeste 0 -- -- 92
2017-09-12 06:00:00 18.1 12 Noroeste 19 Noroeste 0 -- -- 92
2017-09-12 05:00:00 18.3 15 Noroeste 22 Noroeste 0 -- -- 91
2017-09-12 04:00:00 18.3 15 Noroeste 22 Noroeste 0 -- -- 91
2017-09-12 03:00:00 17.7 9 Noroeste 15 Noroeste 0 -- -- 91
2017-09-12 02:00:00 17.9 12 Noroeste 15 Noroeste 0 -- -- 90
2017-09-12 01:00:00 18.2 9 Norte 13 Noroeste 0 -- -- 88
2017-09-12 00:00:00 18.7 11 Norte 17 Norte 0 -- -- 86
2017-09-11 23:00:00 19.6 12 Norte 22 Noroeste 0 -- -- 84
2017-09-11 22:00:00 19.6 14 Norte 26 Noroeste 0 -- -- 82
2017-09-11 21:00:00 19.8 18 Noroeste 34 Noroeste 0 -- -- 79
2017-09-11 20:00:00 20.4 24 Noroeste 35 Noroeste 0 -- -- 76
2017-09-11 19:00:00 21.5 26 Noroeste 38 Noroeste 0 -- -- 71
2017-09-11 18:00:00 22.7 24 Norte 37 Noroeste 0 -- -- 66
2017-09-11 17:00:00 23.7 28 Norte 41 Noroeste 0 -- -- 61
2017-09-11 16:00:00 24.7 27 Norte 45 Noroeste 0 -- -- 57
2017-09-11 15:00:00 25.5 30 Norte 43 Noroeste 0 -- -- 59
2017-09-11 14:00:00 25.2 30 Noroeste 42 Noroeste 0 -- -- 57
2017-09-11 13:00:00 25.1 28 Norte 40 Noroeste 0 -- -- 58
2017-09-11 12:00:00 24.3 27 Norte 42 Norte 0 -- -- 63
2017-09-11 11:00:00 23.2 26 Norte 35 Norte 0 -- -- 67
2017-09-11 10:00:00 22.5 25 Norte 36 Norte 0 -- -- 70
2017-09-11 09:00:00 19.9 15 Norte 24 Norte 0 -- -- 88
2017-09-11 08:00:00 18.9 13 Noroeste 23 Noroeste 0 -- -- 92
2017-09-11 07:00:00 19 17 Norte 24 Norte 0 -- -- 92
2017-09-11 06:00:00 18.9 16 Norte 33 Norte 0 -- -- 93
2017-09-11 05:00:00 19.6 16 Norte 30 Norte 0 -- -- 88
2017-09-11 04:00:00 19.6 15 Norte 31 Noroeste 0 -- -- 88
2017-09-11 03:00:00 19.5 19 Norte 30 Norte 0 -- -- 88
2017-09-11 02:00:00 19.2 22 Norte 36 Noroeste 0 -- -- 92
2017-09-11 01:00:00 19.7 19 Norte 42 Norte 0 -- -- 88
2017-09-11 00:00:00 20.2 21 Norte 33 Norte 0 -- -- 87
2017-09-10 23:00:00 20 25 Norte 38 Norte 0 -- -- 85
2017-09-10 22:00:00 20.3 28 Norte 41 Norte 0 -- -- 82
2017-09-10 21:00:00 20.5 24 Norte 37 Norte 0 -- -- 82
2017-09-10 20:00:00 21 24 Norte 40 Norte 0 -- -- 77
2017-09-10 19:00:00 21.8 28 Norte 46 Norte 0 -- -- 73
2017-09-10 18:00:00 21.8 33 Noroeste 46 Noroeste 0 -- -- 78
2017-09-10 17:00:00 23.9 32 Noroeste 48 Norte 0 -- -- 67
2017-09-10 16:00:00 24.5 31 Noroeste 47 Noroeste 0 -- -- 62
2017-09-10 15:00:00 25.2 29 Noroeste 44 Norte 0 -- -- 56
2017-09-10 14:00:00 24.7 28 Norte 42 Norte 0 -- -- 59
2017-09-10 13:00:00 24.8 30 Noroeste 48 Norte 0 -- -- 61
2017-09-10 12:00:00 24.5 25 Norte 42 Norte 0 -- -- 58
2017-09-10 11:00:00 22.8 19 Norte 32 Norte 0 -- -- 61
2017-09-10 10:00:00 21.1 21 Norte 30 Norte 0 -- -- 69
2017-09-10 09:00:00 20.2 14 Norte 19 Norte 0 -- -- 73
2017-09-10 08:00:00 18.9 14 Norte 33 Norte 0 -- -- 75
2017-09-10 07:00:00 18.3 12 Norte 21 Norte 0 -- -- 80
2017-09-10 06:00:00 18.2 11 Norte 20 Norte 0 -- -- 80
2017-09-10 05:00:00 18.5 11 Norte 31 Norte 0 -- -- 81
2017-09-10 04:00:00 18.5 17 Norte 27 Norte 0 -- -- 83
2017-09-10 03:00:00 18.2 14 Norte 30 Norte 0 -- -- 86
2017-09-10 02:00:00 18.4 18 Norte 27 Noroeste 0 -- -- 86
2017-09-10 01:00:00 18.6 18 Norte 28 Norte 0 -- -- 88
2017-09-10 00:00:00 -- -- -- -- -- -- -- -- --
2017-09-09 23:00:00 19.3 20 Noroeste 39 Noroeste 0 -- -- 87
2017-09-09 22:00:00 -- -- -- -- -- -- -- -- --
2017-09-09 21:00:00 20.4 29 Norte 40 Norte 0 -- -- 82
2017-09-09 20:00:00 21.7 29 Norte 40 Noroeste 0 -- -- 78
2017-09-09 19:00:00 23.7 29 Norte 40 Norte 0 -- -- 71
2017-09-09 18:00:00 -- -- -- -- -- -- -- -- --
2017-09-09 17:00:00 26.3 31 Noroeste 46 Noroeste 0 -- -- 63
2017-09-09 16:00:00 26.9 32 Noroeste 44 Noroeste 0 -- -- 61
2017-09-09 15:00:00 27 28 Noroeste 40 Norte 0 -- -- 62
2017-09-09 14:00:00 27 26 Noroeste 37 Noroeste 0 -- -- 63
2017-09-09 13:00:00 28.2 18 Noroeste 27 Noroeste 0 -- -- 58
2017-09-09 12:00:00 26.9 17 Norte 28 Noroeste 0 -- -- 59
2017-09-09 11:00:00 24.1 21 Norte 35 Noroeste 0 -- -- 71
2017-09-09 10:00:00 21.8 22 Norte 37 Norte 0 -- -- 84
2017-09-09 09:00:00 20.1 25 Norte 33 Norte 0 -- -- 94
2017-09-09 08:00:00 19.4 25 Norte 33 Noroeste 0 -- -- 96
2017-09-09 07:00:00 19.3 27 Noroeste 35 Norte 0 -- -- 96
2017-09-09 06:00:00 19.3 19 Norte 29 Noroeste 0 -- -- 96
2017-09-09 05:00:00 19.3 21 Noroeste 30 Noroeste 0 -- -- 95
2017-09-09 04:00:00 19.2 16 Norte 21 Norte 0 -- -- 95
2017-09-09 03:00:00 19.6 9 Norte 21 Norte 0 -- -- 94
2017-09-09 02:00:00 19.9 14 Norte 27 Norte 0 -- -- 94
2017-09-09 01:00:00 20 22 Norte 29 Norte 0 -- -- 93
2017-09-09 00:00:00 20.2 18 Norte 36 Norte 0 -- -- 93
2017-09-08 23:00:00 20.1 23 Norte 34 Norte 0 -- -- 93
2017-09-08 22:00:00 20.3 23 Norte 38 Noroeste 0 -- -- 92
2017-09-08 21:00:00 20.8 28 Norte 37 Norte 0 -- -- 90
2017-09-08 20:00:00 21.8 23 Norte 37 Norte 0 -- -- 84
2017-09-08 19:00:00 23.2 27 Noroeste 37 Noroeste 0 -- -- 78
2017-09-08 18:00:00 24.5 28 Norte 38 Norte 0 -- -- 72
2017-09-08 17:00:00 25.5 27 Norte 38 Norte 0 -- -- 68
2017-09-08 16:00:00 26.6 29 Norte 41 Norte 0 -- -- 63
2017-09-08 15:00:00 26.9 32 Norte 39 Norte 0 -- -- 62
2017-09-08 14:00:00 26.7 27 Norte 36 Noroeste 0 -- -- 63
2017-09-08 13:00:00 26 27 Norte 39 Norte 0 -- -- 64
2017-09-08 12:00:00 25.8 30 Norte 44 Noroeste 0 -- -- 66
2017-09-08 11:00:00 24.1 3 Norte 21 Norte 0 -- -- 71
2017-09-08 10:00:00 21.8 16 Norte 30 Noroeste 0 -- -- 85
2017-09-08 09:00:00 20 23 Noroeste 38 Norte 0 -- -- 92
2017-09-08 08:00:00 19.3 25 Norte 39 Noroeste 0 -- -- 94
2017-09-08 07:00:00 19.2 26 Noroeste 41 Noroeste 0 -- -- 95
2017-09-08 06:00:00 19.2 27 Norte 37 Noroeste 0 -- -- 95
2017-09-08 05:00:00 19.2 26 Norte 37 Noroeste 0 -- -- 95
2017-09-08 04:00:00 19.2 25 Noroeste 35 Noroeste 0 -- -- 95
2017-09-08 03:00:00 19.3 23 Noroeste 35 Noroeste 0 -- -- 94
2017-09-08 02:00:00 19.4 24 Noroeste 33 Noroeste 0 -- -- 94
2017-09-08 01:00:00 19.6 23 Noroeste 35 Noroeste 0 -- -- 93
2017-09-08 00:00:00 19.8 23 Norte 38 Norte 0 -- -- 92
2017-09-07 23:00:00 20 27 Norte 42 Norte 0 -- -- 90
2017-09-07 22:00:00 20.2 31 Norte 43 Noroeste 0 -- -- 89
2017-09-07 21:00:00 20.7 28 Norte 41 Noroeste 0 -- -- 86
2017-09-07 20:00:00 21.7 27 Norte 39 Norte 0 -- -- 82
2017-09-07 19:00:00 23.4 28 Noroeste 38 Noroeste 0 -- -- 75
2017-09-07 18:00:00 25.2 27 Norte 41 Noroeste 0 -- -- 67
2017-09-07 17:00:00 25.7 29 Noroeste 43 Noroeste 0 -- -- 68
2017-09-07 16:00:00 26.4 29 Noroeste 41 Norte 0 -- -- 65
2017-09-07 15:00:00 27.2 27 Noroeste 41 Norte 0 -- -- 62
2017-09-07 14:00:00 26.8 30 Noroeste 43 Noroeste 0 -- -- 63
2017-09-07 13:00:00 25.8 29 Norte 47 Noroeste 0 -- -- 66
2017-09-07 12:00:00 24.9 30 Norte 41 Noroeste 0 -- -- 69
2017-09-07 11:00:00 23.7 28 Norte 44 Norte 0 -- -- 73
2017-09-07 10:00:00 21.7 32 Norte 44 Norte 0 -- -- 82
2017-09-07 09:00:00 20.5 29 Norte 44 Noroeste 0 -- -- 88
2017-09-07 08:00:00 19.7 29 Norte 43 Noroeste 0 -- -- 93
2017-09-07 07:00:00 19.7 29 Norte 39 Norte 0 -- -- 92
2017-09-07 06:00:00 19.8 26 Norte 40 Norte 0 -- -- 91
2017-09-07 05:00:00 20.2 27 Norte 35 Norte 0 -- -- 92
2017-09-07 04:00:00 20.2 22 Norte 34 Norte 0 -- -- 93
2017-09-07 03:00:00 20.1 22 Norte 34 Norte 0 -- -- 93
2017-09-07 02:00:00 20.2 24 Norte 39 Norte 0 -- -- 93
2017-09-07 01:00:00 20.1 30 Norte 45 Norte 0 -- -- 93
2017-09-07 00:00:00 20.1 27 Norte 39 Norte 0 -- -- 92
2017-09-06 23:00:00 20.4 28 Norte 41 Noroeste 0 -- -- 90
2017-09-06 22:00:00 20.6 29 Norte 46 Norte 0 -- -- 88
2017-09-06 21:00:00 21.1 33 Norte 50 Norte 0 -- -- 85
2017-09-06 20:00:00 21.4 34 Norte 50 Norte 0 -- -- 80
2017-09-06 19:00:00 22.3 37 Norte 53 Noroeste 0 -- -- 77
2017-09-06 18:00:00 22.9 40 Noroeste 54 Noroeste 0 -- -- 73
2017-09-06 17:00:00 23.5 37 Noroeste 51 Norte 0 -- -- 72
2017-09-06 16:00:00 24.2 39 Noroeste 53 Norte 0 -- -- 66
2017-09-06 15:00:00 25 36 Norte 53 Noroeste 0 -- -- 64
2017-09-06 14:00:00 25.1 35 Norte 54 Norte 0 -- -- 63
2017-09-06 13:00:00 25.2 33 Norte 46 Norte 0 -- -- 61
2017-09-06 12:00:00 23.9 31 Norte 49 Noroeste 0 -- -- 65
2017-09-06 11:00:00 22.8 32 Norte 47 Norte 0 -- -- 68
2017-09-06 10:00:00 22 33 Norte 50 Norte 0 -- -- 72
2017-09-06 09:00:00 20.5 28 Norte 45 Norte 0 -- -- 79
2017-09-06 08:00:00 19 23 Norte 40 Norte 0 -- -- 85
2017-09-06 07:00:00 19.2 24 Norte 39 Norte 0 -- -- 83
2017-09-06 06:00:00 19 21 Norte 39 Noroeste 0 -- -- 85
2017-09-06 05:00:00 19.3 29 Norte 47 Norte 0 -- -- 85
2017-09-06 04:00:00 19.3 35 Norte 50 Norte 0 -- -- 85
2017-09-06 03:00:00 19.6 35 Norte 54 Norte 0 -- -- 85
2017-09-06 02:00:00 19.9 40 Norte 58 Norte 0 -- -- 85
2017-09-06 01:00:00 19.9 39 Norte 53 Norte 0 -- -- 85
2017-09-06 00:00:00 20 33 Norte 44 Norte 0 -- -- 84
2017-09-05 23:00:00 20.6 27 Norte 50 Norte 0 -- -- 85
2017-09-05 22:00:00 20.8 33 Norte 49 Noroeste 0 -- -- 85
2017-09-05 21:00:00 21 33 Norte 47 Norte 0 -- -- 83
2017-09-05 20:00:00 21.9 29 Norte 49 Norte 0 -- -- 81
2017-09-05 19:00:00 23.2 39 Norte 55 Noroeste 0 -- -- 77
2017-09-05 18:00:00 24.9 33 Norte 52 Norte 0 -- -- 69
2017-09-05 17:00:00 26.2 33 Norte 50 Norte 0 -- -- 63
2017-09-05 16:00:00 26.8 36 Norte 48 Norte 0 -- -- 59
2017-09-05 15:00:00 27.6 33 Norte 42 Norte 0 -- -- 56
2017-09-05 14:00:00 27.7 30 Norte 45 Noroeste 0 -- -- 55
2017-09-05 13:00:00 27.8 27 Norte 36 Noroeste 0 -- -- 53
2017-09-05 12:00:00 26.5 23 Norte 34 Norte 0 -- -- 54
2017-09-05 11:00:00 24.3 22 Noroeste 32 Noroeste 0 -- -- 64
2017-09-05 10:00:00 22.5 19 Norte 27 Norte 0 -- -- 68
2017-09-05 09:00:00 19.9 21 Norte 25 Norte 0 -- -- 83
2017-09-05 08:00:00 18.3 17 Norte 24 Norte 0 -- -- 90
2017-09-05 07:00:00 17.7 10 Norte 27 Nordeste 0 -- -- 88
2017-09-05 06:00:00 18.9 18 Nordeste 24 Nordeste 0 -- -- 90
2017-09-05 05:00:00 18.6 4 Noroeste 23 Noroeste 0 -- -- 89
2017-09-05 04:00:00 19.4 19 Norte 33 Noroeste 0 -- -- 87
2017-09-05 03:00:00 20.6 22 Noroeste 28 Noroeste 0 -- -- 76
2017-09-05 02:00:00 22.5 15 Noroeste 22 Nordeste 0 -- -- 54
2017-09-05 01:00:00 22.5 14 Norte 22 Noroeste 0 -- -- 52
2017-09-05 00:00:00 22.4 15 Noroeste 22 Norte 0 -- -- 63
2017-09-04 23:00:00 24.2 10 Norte 19 Norte 0 -- -- 45
2017-09-04 22:00:00 24.2 8 Nordeste 19 Norte 0 -- -- 50
2017-09-04 21:00:00 23.7 9 Nordeste 25 Nordeste 0 -- -- 53
2017-09-04 20:00:00 24.9 16 Nordeste 32 Nordeste 0 -- -- 44
2017-09-04 19:00:00 26.7 23 Nordeste 37 Este 0 -- -- 35
2017-09-04 18:00:00 27.6 24 Nordeste 42 Nordeste 0 -- -- 37
2017-09-04 17:00:00 28.5 26 Nordeste 44 Este 0 -- -- 35
2017-09-04 16:00:00 29.4 27 Nordeste 44 Nordeste 0 -- -- 32
2017-09-04 15:00:00 29 31 Nordeste 46 Nordeste 0 -- -- 34
2017-09-04 14:00:00 29.3 25 Nordeste 39 Nordeste 0 -- -- 39
2017-09-04 13:00:00 27.7 20 Nordeste 31 Norte 0 -- -- 55
2017-09-04 12:00:00 26.4 15 Nordeste 22 Nordeste 0 -- -- 64
2017-09-04 11:00:00 24.5 14 Nordeste 23 Nordeste 0 -- -- 72
2017-09-04 10:00:00 22.8 15 Nordeste 23 Norte 0 -- -- 80
2017-09-04 09:00:00 21 13 Norte 22 Norte 0 -- -- 88
2017-09-04 08:00:00 19.8 10 Nordeste 24 Nordeste 0 -- -- 92
2017-09-04 07:00:00 19.8 14 Nordeste 20 Nordeste 0 -- -- 91
2017-09-04 06:00:00 20.1 17 Nordeste 25 Nordeste 0 -- -- 91
2017-09-04 05:00:00 20 11 Nordeste 23 Nordeste 0 -- -- 91
2017-09-04 04:00:00 20.1 14 Nordeste 27 Nordeste 0 -- -- 91
2017-09-04 03:00:00 20.1 17 Nordeste 26 Nordeste 0 -- -- 92
2017-09-04 02:00:00 19.7 9 Noroeste 22 Norte 0 -- -- 91
2017-09-04 01:00:00 20.1 17 Norte 32 Norte 0 -- -- 90
2017-09-04 00:00:00 20.3 25 Norte 39 Norte 0 -- -- 90
2017-09-03 23:00:00 20.6 26 Norte 39 Norte 0 -- -- 88
2017-09-03 22:00:00 20.9 25 Norte 38 Noroeste 0 -- -- 86
2017-09-03 21:00:00 21.5 24 Norte 38 Norte 0 -- -- 83
2017-09-03 20:00:00 23.6 13 Norte 32 Noroeste 0 -- -- 74
2017-09-03 19:00:00 24.8 15 Nordeste 27 Nordeste 0 -- -- 70
2017-09-03 18:00:00 25.4 19 Nordeste 32 Nordeste 0 -- -- 67
2017-09-03 17:00:00 26 21 Nordeste 32 Este 0 -- -- 65
2017-09-03 16:00:00 27 20 Nordeste 30 Nordeste 0 -- -- 63
2017-09-03 15:00:00 28.1 14 Nordeste 37 Noroeste 0 -- -- 59
2017-09-03 14:00:00 27.3 22 Noroeste 32 Noroeste 0 -- -- 61
2017-09-03 13:00:00 27 15 Norte 27 Noroeste 0 -- -- 60
2017-09-03 12:00:00 26.2 13 Norte 24 Norte 0 -- -- 62
2017-09-03 11:00:00 23.5 12 Nordeste 22 Nordeste 0 -- -- 71
2017-09-03 10:00:00 22.4 14 Nordeste 22 Nordeste 0 -- -- 76
2017-09-03 09:00:00 21.3 10 Nordeste 17 Nordeste 0 -- -- 82
2017-09-03 08:00:00 20.7 9 Nordeste 18 Nordeste 0 -- -- 84
2017-09-03 07:00:00 20.9 10 Norte 16 Norte 0 -- -- 84
2017-09-03 06:00:00 20.9 11 Nordeste 20 Norte 0 -- -- 84
2017-09-03 05:00:00 20.8 14 Norte 27 Norte 0 -- -- 87
2017-09-03 04:00:00 20.8 19 Norte 29 Norte 0 -- -- 89
2017-09-03 03:00:00 21 21 Norte 30 Norte 0 -- -- 89
2017-09-03 02:00:00 21.1 17 Norte 26 Noroeste 0 -- -- 88
2017-09-03 01:00:00 21.3 19 Norte 26 Norte 0 -- -- 88
2017-09-03 00:00:00 21.7 13 Norte 19 Norte 0 -- -- 83
2017-09-02 23:00:00 21.5 16 Norte 24 Norte 0 -- -- 84
2017-09-02 22:00:00 21.5 17 Norte 32 Noroeste 0 -- -- 87
2017-09-02 21:00:00 21.5 18 Norte 33 Norte 0 -- -- 87
2017-09-02 20:00:00 21.7 21 Norte 34 Norte 0 -- -- 84
2017-09-02 19:00:00 22 24 Noroeste 35 Noroeste 0 -- -- 84
2017-09-02 18:00:00 22.8 24 Noroeste 36 Noroeste 0 -- -- 79
2017-09-02 17:00:00 24 27 Noroeste 41 Noroeste 0 -- -- 72
2017-09-02 16:00:00 25.1 28 Noroeste 40 Norte 0 -- -- 68
2017-09-02 15:00:00 -- -- -- -- -- -- -- -- --
2017-09-02 14:00:00 25.5 28 Noroeste 40 Noroeste 0 -- -- 64
2017-09-02 13:00:00 25 26 Noroeste 36 Norte 0 -- -- 66
2017-09-02 12:00:00 24.2 17 Norte 28 Norte 0 -- -- 67
2017-09-02 11:00:00 22.6 18 Norte 27 Noroeste 0 -- -- 72
2017-09-02 10:00:00 21.7 17 Norte 27 Norte 0 -- -- 76
2017-09-02 09:00:00 20.8 17 Norte 27 Norte 0 -- -- 80
2017-09-02 08:00:00 20.3 17 Norte 31 Norte 0 -- -- 85
2017-09-02 07:00:00 20.2 18 Norte 33 Norte 0 -- -- 86
2017-09-02 06:00:00 20.2 23 Norte 32 Norte 0 -- -- 86
2017-09-02 05:00:00 20.1 21 Norte 33 Norte 0 -- -- 85
2017-09-02 04:00:00 -- -- -- -- -- -- -- -- --
2017-09-02 03:00:00 20.3 22 Norte 32 Norte 0 -- -- 85
2017-09-02 02:00:00 20.3 19 Norte 31 Norte 0 -- -- 84
2017-09-02 01:00:00 20.2 21 Norte 35 Noroeste 0 -- -- 85
2017-09-02 00:00:00 20.1 23 Norte 39 Norte 0 -- -- 88
2017-09-01 23:00:00 20.2 28 Noroeste 42 Norte 0 -- -- 89
2017-09-01 22:00:00 20.3 26 Norte 40 Norte 0 -- -- 87
2017-09-01 21:00:00 20.5 30 Norte 43 Noroeste 0 -- -- 85
2017-09-01 20:00:00 21.1 27 Norte 42 Norte 0 -- -- 82
2017-09-01 19:00:00 21.9 28 Norte 44 Noroeste 0 -- -- 77
2017-09-01 18:00:00 22.5 28 Norte 42 Noroeste 0 -- -- 74
2017-09-01 17:00:00 22.9 31 Noroeste 44 Norte 0 -- -- 73
2017-09-01 16:00:00 23.8 33 Noroeste 48 Noroeste 0 -- -- 71
2017-09-01 15:00:00 23.7 30 Norte 42 Noroeste 0 -- -- 71
2017-09-01 14:00:00 23.7 31 Noroeste 44 Norte 0 -- -- 69
2017-09-01 13:00:00 23.9 28 Noroeste 38 Norte 0 -- -- 69
2017-09-01 12:00:00 23.7 25 Norte 38 Norte 0 -- -- 66
2017-09-01 11:00:00 22.7 26 Norte 38 Noroeste 0 -- -- 74
2017-09-01 10:00:00 22.6 28 Norte 41 Norte 0 -- -- 73
2017-09-01 09:00:00 21 22 Norte 35 Norte 0 -- -- 87
2017-09-01 08:00:00 19 22 Norte 36 Norte 0 -- -- 92
2017-09-01 07:00:00 19.3 25 Norte 35 Norte 0 -- -- 93
2017-09-01 06:00:00 19.3 26 Norte 45 Norte 0 -- -- 92
2017-09-01 05:00:00 19.5 24 Norte 40 Norte 0 -- -- 91
2017-09-01 04:00:00 19.6 27 Noroeste 51 Noroeste 0 -- -- 91
2017-09-01 03:00:00 20.3 30 Noroeste 44 Noroeste 0 -- -- 87
2017-09-01 02:00:00 20.3 30 Noroeste 42 Norte 0 -- -- 86
2017-09-01 01:00:00 20.2 31 Norte 51 Norte 0 -- -- 86
2017-09-01 00:00:00 20.5 34 Norte 56 Noroeste 0 -- -- 90
2017-08-31 23:00:00 20.7 37 Norte 55 Noroeste 0 -- -- 89
2017-08-31 22:00:00 20.9 37 Noroeste 55 Noroeste 0 -- -- 87
2017-08-31 21:00:00 21 37 Norte 62 Norte 0 -- -- 83
2017-08-31 20:00:00 21.2 40 Norte 59 Noroeste 0 -- -- 84
2017-08-31 19:00:00 22.3 42 Noroeste 60 Noroeste 0 -- -- 75
2017-08-31 18:00:00 23.5 42 Noroeste 56 Noroeste 0 -- -- 68
2017-08-31 17:00:00 23.9 41 Noroeste 59 Norte 0 -- -- 64
2017-08-31 16:00:00 24.5 40 Noroeste 59 Norte 0 -- -- 65
2017-08-31 15:00:00 24.9 41 Noroeste 57 Noroeste 0 -- -- 64
2017-08-31 14:00:00 24.9 38 Norte 52 Norte 0 -- -- 66
2017-08-31 13:00:00 25.6 38 Norte 56 Norte 0 -- -- 58
2017-08-31 12:00:00 24.8 39 Norte 54 Norte 0 -- -- 61
2017-08-31 11:00:00 24 32 Norte 51 Norte 0 -- -- 67
2017-08-31 10:00:00 22.3 35 Norte 49 Norte 0 -- -- 73
2017-08-31 09:00:00 21.1 30 Norte 42 Norte 0 -- -- 82
2017-08-31 08:00:00 20.4 27 Noroeste 39 Noroeste 0 -- -- 86
2017-08-31 07:00:00 20.1 26 Norte 37 Norte 0 -- -- 87
2017-08-31 06:00:00 20.1 23 Norte 39 Norte 0 -- -- 86
2017-08-31 05:00:00 20.2 26 Norte 46 Norte 0 -- -- 86
2017-08-31 04:00:00 20.4 33 Norte 46 Norte 0 -- -- 87
2017-08-31 03:00:00 20.6 33 Norte 51 Norte 0 -- -- 86
2017-08-31 02:00:00 20.7 35 Norte 53 Norte 0 -- -- 87
2017-08-31 01:00:00 20.5 35 Norte 47 Noroeste 0 -- -- 88
2017-08-31 00:00:00 20.4 35 Norte 54 Norte 0 -- -- 87
2017-08-30 23:00:00 20.6 34 Norte 53 Noroeste 0 -- -- 87
2017-08-30 22:00:00 20.8 39 Norte 53 Norte 0 -- -- 85
2017-08-30 21:00:00 21.2 33 Norte 54 Noroeste 0 -- -- 85
2017-08-30 20:00:00 21.7 37 Noroeste 51 Noroeste 0 -- -- 83
2017-08-30 19:00:00 22.4 36 Noroeste 51 Norte 0 -- -- 77
2017-08-30 18:00:00 23.5 38 Noroeste 50 Norte 0 -- -- 71
2017-08-30 17:00:00 24.8 34 Noroeste 48 Noroeste 0 -- -- 65
2017-08-30 16:00:00 25.8 32 Noroeste 51 Noroeste 0 -- -- 60
2017-08-30 15:00:00 26.5 30 Norte 52 Noroeste 0 -- -- 56
2017-08-30 14:00:00 26.2 33 Norte 48 Noroeste 0 -- -- 59
2017-08-30 13:00:00 25.7 29 Norte 47 Norte 0 -- -- 59
2017-08-30 12:00:00 25.1 29 Norte 43 Norte 0 -- -- 59
2017-08-30 11:00:00 23.8 29 Norte 47 Norte 0 -- -- 66
2017-08-30 10:00:00 22.1 33 Norte 44 Norte 0 -- -- 76
2017-08-30 09:00:00 21.2 24 Norte 34 Noroeste 0 -- -- 85
2017-08-30 08:00:00 19.7 19 Norte 33 Norte 0 -- -- 91
2017-08-30 07:00:00 19.6 21 Norte 33 Norte 0 -- -- 91
2017-08-30 06:00:00 19.6 22 Norte 36 Norte 0 -- -- 90
2017-08-30 05:00:00 19.9 22 Norte 34 Noroeste 0 -- -- 90
2017-08-30 04:00:00 20 21 Norte 36 Norte 0 -- -- 89
2017-08-30 03:00:00 20.4 20 Norte 35 Norte 0 -- -- 87
2017-08-30 02:00:00 20.5 22 Norte 40 Norte 0 -- -- 88
2017-08-30 01:00:00 20.4 24 Norte 32 Norte 0 -- -- 87
2017-08-30 00:00:00 20.2 20 Norte 40 Norte 0 -- -- 85
2017-08-29 23:00:00 20.5 24 Norte 38 Norte 0 -- -- 84
2017-08-29 22:00:00 20.7 18 Norte 35 Norte 0 -- -- 82
2017-08-29 21:00:00 21.3 22 Norte 41 Noroeste 0 -- -- 82
2017-08-29 20:00:00 21.5 30 Noroeste 40 Noroeste 0 -- -- 79
2017-08-29 19:00:00 22.6 31 Noroeste 43 Noroeste 0 -- -- 75
2017-08-29 18:00:00 24.2 33 Noroeste 46 Noroeste 0 -- -- 68
2017-08-29 17:00:00 24.5 33 Noroeste 47 Noroeste 0 -- -- 66
2017-08-29 16:00:00 25.5 32 Noroeste 50 Norte 0 -- -- 61
2017-08-29 15:00:00 25.7 34 Noroeste 51 Noroeste 0 -- -- 62
2017-08-29 14:00:00 24.3 33 Norte 45 Noroeste 0 -- -- 69
2017-08-29 13:00:00 24.9 24 Norte 35 Noroeste 0 -- -- 63
2017-08-29 12:00:00 24.7 17 Norte 32 Norte 0 -- -- 61
2017-08-29 11:00:00 23.8 20 Norte 32 Norte 0 -- -- 65
2017-08-29 10:00:00 21.5 25 Norte 38 Norte 0 -- -- 73
2017-08-29 09:00:00 20.5 24 Norte 35 Norte 0 -- -- 84
2017-08-29 08:00:00 18.7 19 Norte 30 Norte 0 -- -- 92
2017-08-29 07:00:00 18.3 19 Norte 27 Norte 0 -- -- 91
2017-08-29 06:00:00 18.3 13 Noroeste 24 Noroeste 0 -- -- 92
2017-08-29 05:00:00 18.4 14 Noroeste 22 Noroeste 0 -- -- 91
2017-08-29 04:00:00 18.9 15 Noroeste 25 Norte 0 -- -- 92
2017-08-29 03:00:00 19.2 16 Norte 28 Norte 0 -- -- 90
2017-08-29 02:00:00 19.2 15 Noroeste 24 Noroeste 0 -- -- 90
2017-08-29 01:00:00 19.4 15 Norte 28 Norte 0 -- -- 88
2017-08-29 00:00:00 20.1 22 Norte 32 Norte 0 -- -- 87
2017-08-28 23:00:00 20.2 23 Norte 37 Norte 0 -- -- 85
2017-08-28 22:00:00 20.6 24 Norte 39 Norte 0 -- -- 82
2017-08-28 21:00:00 21.1 26 Norte 38 Noroeste 0 -- -- 79
2017-08-28 20:00:00 22.2 28 Norte 38 Norte 0 -- -- 74
2017-08-28 19:00:00 23.8 27 Norte 41 Noroeste 0 -- -- 68
2017-08-28 18:00:00 24.9 30 Noroeste 42 Noroeste 0 -- -- 64
2017-08-28 17:00:00 26.1 28 Noroeste 39 Noroeste 0 -- -- 58
2017-08-28 16:00:00 27 23 Norte 46 Norte 0 -- -- 56
2017-08-28 15:00:00 -- -- -- -- -- -- -- -- --
2017-08-28 14:00:00 26.6 19 Nordeste 39 Norte 0 -- -- 58
2017-08-28 13:00:00 26.1 15 Norte 37 Nordeste 0 -- -- 59
2017-08-28 12:00:00 25.1 19 Nordeste 30 Nordeste 0 -- -- 63
2017-08-28 11:00:00 23.6 22 Nordeste 34 Este 0 -- -- 68
2017-08-28 10:00:00 23 19 Norte 30 Norte 0 -- -- 72
2017-08-28 09:00:00 20.8 15 Norte 22 Norte 0 -- -- 84
2017-08-28 08:00:00 19.3 10 Norte 18 Norte 0 -- -- 89
2017-08-28 07:00:00 19.2 9 Norte 14 Noroeste 0 -- -- 86
2017-08-28 06:00:00 19.9 7 Norte 12 Noroeste 0 -- -- 83
2017-08-28 05:00:00 20.5 8 Nordeste 14 Este 0 -- -- 82
2017-08-28 04:00:00 20.9 5 Sudeste 14 Sudeste 0 -- -- 80
2017-08-28 03:00:00 21.1 7 Nordeste 17 Norte 0 -- -- 78
2017-08-28 02:00:00 21.3 14 Norte 22 Norte 0 -- -- 74
2017-08-28 01:00:00 21.5 13 Norte 21 Nordeste 0 -- -- 74
2017-08-28 00:00:00 21.4 11 Norte 28 Norte 0 -- -- 82
2017-08-27 23:00:00 21.4 15 Norte 35 Norte 0 -- -- 87
2017-08-27 22:00:00 21.5 26 Norte 37 Norte 0 -- -- 86
2017-08-27 21:00:00 22.2 23 Norte 37 Norte 0 -- -- 81
2017-08-27 20:00:00 23.3 27 Norte 42 Norte 0 -- -- 76
2017-08-27 19:00:00 24 21 Nordeste 41 Nordeste 0 -- -- 74
2017-08-27 18:00:00 -- -- -- -- -- -- -- -- --
2017-08-27 17:00:00 27.2 22 Nordeste 45 Noroeste 0 -- -- 61
2017-08-27 16:00:00 28.1 31 Norte 43 Noroeste 0 -- -- 58
2017-08-27 15:00:00 29.3 28 Noroeste 40 Noroeste 0 -- -- 52
2017-08-27 14:00:00 28.5 26 Noroeste 37 Noroeste 0 -- -- 58
2017-08-27 13:00:00 29.3 14 Nordeste 28 Noroeste 0 -- -- 48
2017-08-27 12:00:00 27.5 21 Noroeste 32 Noroeste 0 -- -- 58
2017-08-27 11:00:00 25.5 21 Norte 35 Norte 0 -- -- 65
2017-08-27 10:00:00 22.7 26 Norte 36 Noroeste 0 -- -- 79
2017-08-27 09:00:00 20.8 26 Norte 39 Norte 0 -- -- 91
2017-08-27 08:00:00 19.9 27 Norte 47 Noroeste 0 -- -- 94
2017-08-27 07:00:00 20 26 Noroeste 35 Norte 0 -- -- 94
2017-08-27 06:00:00 20.1 27 Noroeste 39 Noroeste 0 -- -- 92
2017-08-27 05:00:00 20.4 22 Norte 37 Noroeste 0 -- -- 93
2017-08-27 04:00:00 20.5 25 Norte 39 Noroeste 0 -- -- 93
2017-08-27 03:00:00 20.8 26 Norte 36 Noroeste 0 -- -- 92
2017-08-27 02:00:00 20.9 28 Noroeste 41 Noroeste 0 -- -- 92
2017-08-27 01:00:00 21.1 14 Noroeste 24 Noroeste 0 -- -- 88
2017-08-27 00:00:00 21.1 15 Noroeste 23 Noroeste 0 -- -- 92
2017-08-26 23:00:00 21.5 17 Noroeste 26 Noroeste 0 -- -- 90
2017-08-26 22:00:00 21.6 21 Noroeste 34 Noroeste 0 -- -- 89
2017-08-26 21:00:00 21.9 25 Norte 39 Noroeste 0 -- -- 88
2017-08-26 20:00:00 22.9 28 Noroeste 39 Noroeste 0 -- -- 84
2017-08-26 19:00:00 24.7 31 Noroeste 44 Noroeste 0 -- -- 74
2017-08-26 18:00:00 27.1 33 Norte 46 Norte 0 -- -- 59
2017-08-26 17:00:00 28.6 32 Norte 44 Norte 0 -- -- 58
2017-08-26 16:00:00 29 27 Noroeste 38 Noroeste 0 -- -- 62
2017-08-26 15:00:00 29.1 19 Norte 29 Noroeste 0 -- -- 60
2017-08-26 14:00:00 29 16 Norte 26 Norte 0 -- -- 59
2017-08-26 13:00:00 28.4 13 Norte 25 Noroeste 0 -- -- 61
2017-08-26 12:00:00 25.9 22 Norte 40 Norte 0 -- -- 69
2017-08-26 11:00:00 24.2 26 Norte 36 Norte 0 -- -- 76
2017-08-26 10:00:00 22.5 26 Norte 42 Noroeste 0 -- -- 84
2017-08-26 09:00:00 21.2 31 Norte 46 Norte 0 -- -- 91
2017-08-26 08:00:00 20.5 35 Norte 45 Noroeste 0 -- -- 94
2017-08-26 07:00:00 20.5 19 Norte 26 Norte 0 -- -- 94
2017-08-26 06:00:00 20.5 14 Noroeste 21 Norte 0 -- -- 93
2017-08-26 05:00:00 20.3 2 Oeste 10 Norte 0 -- -- 92
2017-08-26 04:00:00 20.9 7 Norte 19 Norte 0 -- -- 92
2017-08-26 03:00:00 21.2 15 Norte 23 Norte 0 -- -- 92
2017-08-26 02:00:00 21.4 17 Norte 28 Norte 0 -- -- 92
2017-08-26 01:00:00 21.4 21 Norte 37 Norte 0 -- -- 93
2017-08-26 00:00:00 22.1 26 Norte 35 Norte 0 -- -- 91
2017-08-25 23:00:00 22.3 19 Norte 29 Norte 0 -- -- 91
2017-08-25 22:00:00 22.2 26 Norte 34 Norte 0 -- -- 92
2017-08-25 21:00:00 23 22 Norte 32 Norte 0 -- -- 88
2017-08-25 20:00:00 25.7 24 Norte 32 Norte 0 -- -- 76
2017-08-25 19:00:00 29.5 20 Norte 24 Norte 0 -- -- 60
2017-08-25 18:00:00 33.4 13 Norte 20 Norte 0 -- -- 48
2017-08-25 17:00:00 33.5 11 Este 26 Norte 0 -- -- 49
2017-08-25 16:00:00 32.7 17 Norte 28 Norte 0 -- -- 51
2017-08-25 15:00:00 32.8 15 Norte 26 Norte 0 -- -- 51
2017-08-25 14:00:00 33.4 7 Este 15 Este 0 -- -- 49
2017-08-25 13:00:00 30.3 4 Oeste 20 Sudeste 0 -- -- 56
2017-08-25 12:00:00 29.8 13 Este 21 Este 0 -- -- 58
2017-08-25 11:00:00 30.1 10 Sudeste 19 Sudeste 0 -- -- 54
2017-08-25 10:00:00 26.3 18 Norte 35 Norte 0 -- -- 69
2017-08-25 09:00:00 24.5 24 Norte 33 Norte 0 -- -- 75
2017-08-25 08:00:00 22.6 21 Norte 35 Norte 0 -- -- 85
2017-08-25 07:00:00 22.8 13 Norte 25 Norte 0 -- -- 82
2017-08-25 06:00:00 25.6 9 Nordeste 44 Sudeste 0 -- -- 59
2017-08-25 05:00:00 26 8 Noroeste 10 Noroeste 0 -- -- 43
2017-08-25 04:00:00 27.4 4 Sur 10 Oeste 0 -- -- 41
2017-08-25 03:00:00 21.9 2 Noroeste 11 Oeste 0 -- -- 83
2017-08-25 02:00:00 22 5 Sudoeste 14 Sudeste 0 -- -- 86
2017-08-25 01:00:00 22.7 2 Sudeste 14 Sudeste 0 -- -- 81
2017-08-25 00:00:00 -- -- -- -- -- -- -- -- --